Yokosuka — JCOY — position and weather

sailwx.info

Track history (hours):
 
Tides and Currents Weather Stations Pressure Air Temp Water Temp Dewpoint Dewpoint Depression Visibility Wind Speed Wind Dir Waves Ship Positions

Oceanographic research ship Yokosuka (Japan)

Detailed information on ship capabilities available from University of Delaware's Ocean Information Center.

Last reported at 2019-Feb-15 10:31 UTC. Time now 2019-Feb-23 16:44 UTC.
Position N 33°48' E 135°03'.
Warning: this ship's position is 8 days out of date.

Length 105.2 m; beam 16 m.

Type: Other ship. MMSI: 431460000.

Date/timePositionNaut miles runAvg speedWind from/ knotsBaromVisibWave heightAir tempDewpointWater temp
2019-Feb-15 10:31N 33°48' E 135°03'017.3
2019-Feb-15 10:30N 33°49' E 135°02'815.7
2019-Feb-15 10:01N 33°56' E 135°00'816.6
2019-Feb-15 09:30N 34°04' E 135°01'815.6
2019-Feb-15 09:00N 34°11' E 135°06'1 2.4
2019-Feb-15 08:29N 34°12' E 135°07'0 0.0
2019-Feb-15 07:59N 34°12' E 135°07'0 0.0
2019-Feb-15 07:29N 34°12' E 135°07'1 1.3
2019-Feb-15 07:01N 34°12' E 135°07'1 1.5
2019-Feb-15 06:31N 34°11' E 135°06'0 0.3
2019-Feb-15 06:00N 34°11' E 135°06'0 0.2
2019-Feb-15 05:31N 34°11' E 135°06'0 0.1
2019-Feb-15 05:01N 34°11' E 135°06'3 5.6
2019-Feb-15 04:31N 34°10' E 135°03'612.7
2019-Feb-15 04:00N 34°04' E 134°60'816.2
2019-Feb-15 03:30N 33°56' E 134°59'2 3.6
2019-Feb-15 03:00N 33°54' E 134°58'816.3
2019-Feb-15 02:30N 34°02' E 134°59'816.3
2019-Feb-15 02:00N 34°11' E 134°58'815.0
2019-Feb-15 01:30N 34°18' E 134°58'815.1
2019-Feb-15 01:00N 34°25' E 135°02'714.2
2019-Feb-15 00:30N 34°31' E 135°06'510.9
2019-Feb-15 00:00N 34°36' E 135°10'1 2.9
2019-Feb-14 23:30N 34°37' E 135°11'0 0.4
2019-Feb-14 23:00N 34°37' E 135°11'3 6.0
2019-Feb-14 22:30N 34°40' E 135°11'0 0.4
2019-Feb-14 21:57N 34°40' E 135°11'0 0.0
2019-Feb-14 21:27N 34°40' E 135°11'0 0.0
2019-Feb-14 20:57N 34°40' E 135°11'0 0.0
2019-Feb-14 20:27N 34°40' E 135°11'0 0.0
2019-Feb-14 19:57N 34°40' E 135°11'0 0.0
2019-Feb-14 19:27N 34°40' E 135°11'0 0.0
2019-Feb-14 18:57N 34°40' E 135°11'0 0.0
2019-Feb-14 18:27N 34°40' E 135°11'0 0.0
2019-Feb-14 17:57N 34°40' E 135°11'0 0.0
2019-Feb-14 17:27N 34°40' E 135°11'0 0.0
2019-Feb-14 16:57N 34°40' E 135°11'0 0.0
2019-Feb-14 16:27N 34°40' E 135°11'0 0.0
2019-Feb-14 15:57N 34°40' E 135°11'0 0.0
2019-Feb-14 15:27N 34°40' E 135°11'0 0.0
2019-Feb-14 14:57N 34°40' E 135°11'0 0.0
2019-Feb-14 14:27N 34°40' E 135°11'0 0.0
2019-Feb-14 13:57N 34°40' E 135°11'0 0.0
2019-Feb-14 13:27N 34°40' E 135°11'0 0.0
2019-Feb-14 12:57N 34°40' E 135°11'0 0.0
2019-Feb-14 12:27N 34°40' E 135°11'0 0.0
2019-Feb-14 11:57N 34°40' E 135°11'0 0.0
2019-Feb-14 11:27N 34°40' E 135°11'0 0.0
2019-Feb-14 10:57N 34°40' E 135°11'0 0.0
2019-Feb-14 10:27N 34°40' E 135°11'0 0.0
2019-Feb-14 09:57N 34°40' E 135°11'0 0.0
2019-Feb-14 09:27N 34°40' E 135°11'0 0.0
2019-Feb-14 08:57N 34°40' E 135°11'0 0.0
2019-Feb-14 08:21N 34°40' E 135°11'0 0.0
2019-Feb-14 07:57N 34°40' E 135°11'0 0.0
2019-Feb-14 07:27N 34°40' E 135°11'0 0.0
2019-Feb-14 06:57N 34°40' E 135°11'0 0.0
2019-Feb-14 06:21N 34°40' E 135°11'0 0.0
2019-Feb-14 05:51N 34°40' E 135°11'0 0.0
2019-Feb-14 05:27N 34°40' E 135°11'0 0.0
2019-Feb-14 04:57N 34°40' E 135°11'0 0.0
2019-Feb-14 04:21N 34°40' E 135°11'0 0.0
2019-Feb-14 03:51N 34°40' E 135°11'0 0.0
2019-Feb-14 02:57N 34°40' E 135°11'0 0.0
2019-Feb-14 02:27N 34°40' E 135°11'0 0.0
2019-Feb-14 01:57N 34°40' E 135°11'0 0.0
2019-Feb-14 01:27N 34°40' E 135°11'0 0.0
2019-Feb-14 00:57N 34°40' E 135°11'  
Track history (hours):
 
Tides and Currents Weather Stations Pressure Air Temp Water Temp Dewpoint Dewpoint Depression Visibility Wind Speed Wind Dir Waves Ship Positions

Oceanographic research ship Yokosuka (Japan)

Detailed information on ship capabilities available from University of Delaware's Ocean Information Center.

Last reported at 2019-Feb-15 10:31 UTC. Time now 2019-Feb-23 16:44 UTC.
Position N 33°48' E 135°03'.
Warning: this ship's position is 8 days out of date.

Length 105.2 m; beam 16 m.

Type: Other ship. MMSI: 431460000.

Date/timePositionNaut miles runAvg speedWind from/ knotsBaromVisibWave heightAir tempDewpointWater temp
2019-Feb-15 10:31N 33°48' E 135°03'017.3
2019-Feb-15 10:30N 33°49' E 135°02'815.7
2019-Feb-15 10:01N 33°56' E 135°00'816.6
2019-Feb-15 09:30N 34°04' E 135°01'815.6
2019-Feb-15 09:00N 34°11' E 135°06'1 2.4
2019-Feb-15 08:29N 34°12' E 135°07'0 0.0
2019-Feb-15 07:59N 34°12' E 135°07'0 0.0
2019-Feb-15 07:29N 34°12' E 135°07'1 1.3
2019-Feb-15 07:01N 34°12' E 135°07'1 1.5
2019-Feb-15 06:31N 34°11' E 135°06'0 0.3
2019-Feb-15 06:00N 34°11' E 135°06'0 0.2
2019-Feb-15 05:31N 34°11' E 135°06'0 0.1
2019-Feb-15 05:01N 34°11' E 135°06'3 5.6
2019-Feb-15 04:31N 34°10' E 135°03'612.7
2019-Feb-15 04:00N 34°04' E 134°60'816.2
2019-Feb-15 03:30N 33°56' E 134°59'2 3.6
2019-Feb-15 03:00N 33°54' E 134°58'816.3
2019-Feb-15 02:30N 34°02' E 134°59'816.3
2019-Feb-15 02:00N 34°11' E 134°58'815.0
2019-Feb-15 01:30N 34°18' E 134°58'815.1
2019-Feb-15 01:00N 34°25' E 135°02'714.2
2019-Feb-15 00:30N 34°31' E 135°06'510.9
2019-Feb-15 00:00N 34°36' E 135°10'1 2.9
2019-Feb-14 23:30N 34°37' E 135°11'0 0.4
2019-Feb-14 23:00N 34°37' E 135°11'3 6.0
2019-Feb-14 22:30N 34°40' E 135°11'0 0.4
2019-Feb-14 21:57N 34°40' E 135°11'0 0.0
2019-Feb-14 21:27N 34°40' E 135°11'0 0.0
2019-Feb-14 20:57N 34°40' E 135°11'0 0.0
2019-Feb-14 20:27N 34°40' E 135°11'0 0.0
2019-Feb-14 19:57N 34°40' E 135°11'0 0.0
2019-Feb-14 19:27N 34°40' E 135°11'0 0.0
2019-Feb-14 18:57N 34°40' E 135°11'0 0.0
2019-Feb-14 18:27N 34°40' E 135°11'0 0.0
2019-Feb-14 17:57N 34°40' E 135°11'0 0.0
2019-Feb-14 17:27N 34°40' E 135°11'0 0.0
2019-Feb-14 16:57N 34°40' E 135°11'0 0.0
2019-Feb-14 16:27N 34°40' E 135°11'0 0.0
2019-Feb-14 15:57N 34°40' E 135°11'0 0.0
2019-Feb-14 15:27N 34°40' E 135°11'0 0.0
2019-Feb-14 14:57N 34°40' E 135°11'0 0.0
2019-Feb-14 14:27N 34°40' E 135°11'0 0.0
2019-Feb-14 13:57N 34°40' E 135°11'0 0.0
2019-Feb-14 13:27N 34°40' E 135°11'0 0.0
2019-Feb-14 12:57N 34°40' E 135°11'0 0.0
2019-Feb-14 12:27N 34°40' E 135°11'0 0.0
2019-Feb-14 11:57N 34°40' E 135°11'0 0.0
2019-Feb-14 11:27N 34°40' E 135°11'0 0.0
2019-Feb-14 10:57N 34°40' E 135°11'0 0.0
2019-Feb-14 10:27N 34°40' E 135°11'0 0.0
2019-Feb-14 09:57N 34°40' E 135°11'0 0.0
2019-Feb-14 09:27N 34°40' E 135°11'0 0.0
2019-Feb-14 08:57N 34°40' E 135°11'0 0.0
2019-Feb-14 08:21N 34°40' E 135°11'0 0.0
2019-Feb-14 07:57N 34°40' E 135°11'0 0.0
2019-Feb-14 07:27N 34°40' E 135°11'0 0.0
2019-Feb-14 06:57N 34°40' E 135°11'0 0.0
2019-Feb-14 06:21N 34°40' E 135°11'0 0.0
2019-Feb-14 05:51N 34°40' E 135°11'0 0.0
2019-Feb-14 05:27N 34°40' E 135°11'0 0.0
2019-Feb-14 04:57N 34°40' E 135°11'0 0.0
2019-Feb-14 04:21N 34°40' E 135°11'0 0.0
2019-Feb-14 03:51N 34°40' E 135°11'0 0.0
2019-Feb-14 02:57N 34°40' E 135°11'0 0.0
2019-Feb-14 02:27N 34°40' E 135°11'0 0.0
2019-Feb-14 01:57N 34°40' E 135°11'0 0.0
2019-Feb-14 01:27N 34°40' E 135°11'0 0.0
2019-Feb-14 00:57N 34°40' E 135°11'  

Dump ship's entire track history